Time;durP1;ratioP1;P1;durP2;ratioP2;P2;SDS_P1;SDS_P2;PMS_P1;PMS_P2;Temp;Humidity;BMP_temperature;BMP_pressure;BME280_temperature;BME280_humidity;BME280_pressure;Samples;Min_cycle;Max_cycle;Signal;HPM_P1;HPM_P2
2022/01/24 00:01:41;;;;;;;17.48;11.13;;;;;;;18.99;44.86;103629.88;5076923;28;20044;-34
2022/01/24 00:04:08;;;;;;;17.35;11.05;;;;;;;18.96;45.03;103632.75;5071919;28;20645;-34
2022/01/24 00:06:35;;;;;;;16.58;11.18;;;;;;;18.98;44.95;103638.91;5077372;28;20725;-34
2022/01/24 00:09:04;;;;;;;16.20;11.43;;;;;;;18.96;44.85;103630.91;5074103;28;20040;-34
2022/01/24 00:11:42;;;;;;;16.70;11.50;;;;;;;18.96;45.63;103628.22;5077686;28;20340;-34
2022/01/24 00:17:03;;;;;;;16.73;10.52;;;;;;;18.95;45.09;103631.03;5075432;28;21310;-34
2022/01/24 00:27:47;;;;;;;15.00;9.85;;;;;;;18.89;44.70;103621.47;5074450;28;20048;-34
2022/01/24 00:30:15;;;;;;;14.85;9.60;;;;;;;18.86;44.68;103623.53;5076347;28;20048;-34
2022/01/24 00:32:42;;;;;;;15.70;9.00;;;;;;;18.87;44.54;103631.47;5072997;28;20040;-34
2022/01/24 00:35:09;;;;;;;14.65;9.35;;;;;;;18.89;45.07;103623.31;5075549;28;20435;-35
2022/01/24 00:37:36;;;;;;;19.80;12.07;;;;;;;18.83;45.12;103624.56;5076450;28;20054;-34
2022/01/24 00:40:03;;;;;;;38.15;23.75;;;;;;;18.86;45.76;103620.84;5077609;28;20040;-36
2022/01/24 00:42:49;;;;;;;52.88;29.90;;;;;;;18.90;45.35;103625.94;5076698;28;20046;-34
2022/01/24 00:55:25;;;;;;;54.30;29.65;;;;;;;18.86;45.71;103608.25;5080060;28;20059;-35
2022/01/24 00:57:51;;;;;;;50.58;29.55;;;;;;;18.85;45.31;103619.94;5081426;28;20087;-35
2022/01/24 01:00:18;;;;;;;44.17;27.58;;;;;;;18.82;45.41;103609.41;5079506;28;20131;-36
2022/01/24 01:02:45;;;;;;;52.13;29.52;;;;;;;18.79;45.74;103614.94;5085229;28;22339;-35
2022/01/24 01:05:33;;;;;;;46.75;28.38;;;;;;;18.77;45.64;103607.91;5080386;28;20052;-35
2022/01/24 01:18:07;;;;;;;47.92;28.35;;;;;;;18.73;45.44;103609.91;5081298;28;20083;-35
2022/01/24 01:19:05;;;;;;;46.35;28.80;;;;;;;18.59;46.04;103605.34;5082966;28;20056;-35
2022/01/24 01:21:33;;;;;;;46.15;27.63;;;;;;;18.56;46.00;103604.66;5080838;28;20054;-35
2022/01/24 01:24:00;;;;;;;43.53;27.13;;;;;;;18.53;46.24;103611.06;5081874;28;20054;-35
2022/01/24 01:29:00;;;;;;;41.42;25.90;;;;;;;18.49;46.25;103609.50;5077969;28;20059;-34
2022/01/24 01:31:40;;;;;;;42.60;25.38;;;;;;;18.47;46.26;103611.44;5081760;28;20048;-34
2022/01/24 01:55:45;;;;;;;40.80;24.15;;;;;;;18.25;46.40;103601.94;5084266;28;20073;-35
2022/01/24 01:58:15;;;;;;;43.80;25.40;;;;;;;18.22;46.09;103601.25;5087691;28;20131;-35
2022/01/24 02:00:45;;;;;;;42.00;24.45;;;;;;;18.21;46.05;103600.38;5081927;28;20170;-35
2022/01/24 02:03:12;;;;;;;38.78;23.92;;;;;;;18.20;46.38;103605.81;5079464;28;20076;-34
2022/01/24 02:05:40;;;;;;;39.65;23.60;;;;;;;18.17;46.11;103597.94;5085309;28;20674;-35
2022/01/24 02:08:07;;;;;;;39.83;24.02;;;;;;;18.18;46.44;103602.38;5080211;28;20194;-35
2022/01/24 02:10:36;;;;;;;38.15;23.17;;;;;;;18.17;46.50;103605.97;5086198;28;20060;-35
2022/01/24 02:13:04;;;;;;;35.70;22.55;;;;;;;18.15;46.26;103600.72;5081749;28;20067;-35
2022/01/24 02:18:11;;;;;;;40.72;23.58;;;;;;;18.13;46.67;103599.06;5088004;28;20048;-36
2022/01/24 02:25:51;;;;;;;38.45;22.83;;;;;;;18.08;46.41;103593.94;5087125;28;20048;-35
2022/01/24 02:28:20;;;;;;;35.70;21.83;;;;;;;18.07;46.20;103586.88;5081409;28;20513;-35
2022/01/24 02:33:36;;;;;;;33.58;20.90;;;;;;;18.05;46.49;103582.53;5073341;28;20410;-35
2022/01/24 02:36:02;;;;;;;36.67;21.67;;;;;;;18.03;46.53;103579.06;5086044;28;20044;-35
2022/01/24 02:38:50;;;;;;;33.70;20.27;;;;;;;18.03;46.86;103577.25;5084163;28;20044;-35
2022/01/24 02:49:35;;;;;;;33.42;20.25;;;;;;;17.97;46.50;103580.31;5083289;28;20058;-36
2022/01/24 02:52:14;;;;;;;32.78;20.40;;;;;;;17.95;46.62;103583.06;5081475;28;20044;-34
2022/01/24 02:54:41;;;;;;;32.05;19.15;;;;;;;17.94;46.62;103572.41;5085502;28;20044;-36
2022/01/24 02:57:09;;;;;;;32.10;19.55;;;;;;;17.94;46.79;103575.09;5081039;28;20471;-35
2022/01/24 02:59:37;;;;;;;32.42;19.15;;;;;;;17.91;46.41;103564.53;5083925;28;20058;-36
2022/01/24 03:02:04;;;;;;;33.63;20.27;;;;;;;17.91;46.77;103567.22;5081733;28;20343;-37
2022/01/24 03:04:31;;;;;;;29.42;18.92;;;;;;;17.89;46.72;103566.41;5084416;28;20048;-36
2022/01/24 03:06:58;;;;;;;29.38;18.17;;;;;;;17.90;46.79;103568.19;5086464;28;20673;-36
2022/01/24 03:09:25;;;;;;;31.63;18.95;;;;;;;17.88;46.65;103564.69;5081631;28;20698;-37
2022/01/24 03:12:01;;;;;;;28.27;17.88;;;;;;;17.86;46.67;103561.25;5085429;28;20058;-35
2022/01/24 03:14:30;;;;;;;30.40;18.63;;;;;;;17.86;46.99;103558.56;5081315;28;20043;-35
2022/01/24 03:16:56;;;;;;;29.92;18.08;;;;;;;17.84;46.58;103558.63;5079909;28;20131;-36
2022/01/24 03:19:23;;;;;;;27.63;17.60;;;;;;;17.85;46.59;103564.88;5083748;28;20044;-35
2022/01/24 03:21:51;;;;;;;28.05;17.98;;;;;;;17.84;46.55;103568.50;5083713;28;20044;-36
2022/01/24 03:24:19;;;;;;;31.45;18.60;;;;;;;17.83;46.42;103558.72;5086737;28;20040;-36
2022/01/24 03:26:47;;;;;;;29.50;17.92;;;;;;;17.83;46.50;103561.41;5082101;28;20066;-36
2022/01/24 03:29:14;;;;;;;29.58;18.90;;;;;;;17.81;46.37;103549.88;5084410;28;20052;-36
2022/01/24 03:31:42;;;;;;;28.05;17.33;;;;;;;17.79;46.74;103549.97;5085642;28;20423;-36
2022/01/24 03:34:09;;;;;;;29.55;17.38;;;;;;;17.79;46.57;103555.34;5082536;28;20127;-36
2022/01/24 03:36:36;;;;;;;28.35;17.08;;;;;;;17.77;46.72;103551.91;5083433;28;20151;-36
2022/01/24 03:39:03;;;;;;;28.80;17.20;;;;;;;17.76;46.72;103551.00;5083682;28;20074;-36
2022/01/24 03:41:29;;;;;;;29.70;16.98;;;;;;;17.77;46.28;103551.91;5081939;28;20342;-36
2022/01/24 03:44:04;;;;;;;27.27;16.75;;;;;;;17.76;46.68;103550.16;5081800;28;20138;-36
2022/01/24 03:46:47;;;;;;;27.27;16.67;;;;;;;17.76;46.70;103550.16;5082005;28;20402;-37
2022/01/24 03:49:45;;;;;;;27.55;15.95;;;;;;;17.74;46.79;103552.03;5082338;28;20044;-36
2022/01/24 03:52:07;;;;;;;26.30;16.23;;;;;;;17.72;46.70;103554.78;5083867;28;20054;-37
2022/01/24 03:54:34;;;;;;;25.10;15.90;;;;;;;17.72;46.55;103554.78;5080336;28;20127;-37
2022/01/24 03:57:00;;;;;;;25.85;16.25;;;;;;;17.69;46.48;103554.97;5085266;28;20047;-36
2022/01/24 03:59:30;;;;;;;25.52;15.77;;;;;;;17.69;46.39;103551.44;5082368;28;20055;-36
2022/01/24 04:01:59;;;;;;;26.67;16.05;;;;;;;17.67;46.70;103556.00;5081592;28;20048;-37
2022/01/24 04:04:28;;;;;;;24.92;15.35;;;;;;;17.66;46.84;103555.13;5084057;28;20070;-36
2022/01/24 04:06:55;;;;;;;24.10;15.40;;;;;;;17.67;46.37;103556.00;5085068;28;20067;-37
2022/01/24 04:09:21;;;;;;;24.27;15.60;;;;;;;17.65;46.45;103548.06;5082739;28;20047;-36
2022/01/24 04:11:53;;;;;;;22.67;15.00;;;;;;;17.65;46.75;103558.78;5082864;28;20063;-36
2022/01/24 04:14:42;;;;;;;23.85;15.00;;;;;;;17.64;46.68;103557.03;5079729;28;20032;-36
2022/01/24 04:22:15;;;;;;;24.17;15.25;;;;;;;17.62;46.58;103553.56;5079202;28;20072;-37
2022/01/24 04:24:42;;;;;;;22.00;14.45;;;;;;;17.62;46.63;103568.81;5082709;28;20666;-36
2022/01/24 04:27:10;;;;;;;22.63;14.35;;;;;;;17.60;46.58;103559.97;5079993;28;20044;-36
2022/01/24 04:29:37;;;;;;;24.52;15.25;;;;;;;17.58;46.57;103565.44;5082131;28;20382;-36
2022/01/24 04:32:04;;;;;;;22.77;14.05;;;;;;;17.57;46.59;103565.50;5079589;28;20040;-36
2022/01/24 04:34:31;;;;;;;22.80;14.07;;;;;;;17.58;46.86;103561.88;5083703;28;20048;-36
2022/01/24 04:36:58;;;;;;;22.95;13.77;;;;;;;17.58;46.37;103565.44;5083927;28;20058;-36
2022/01/24 04:39:24;;;;;;;22.77;14.32;;;;;;;17.56;46.73;103559.25;5081885;28;20049;-36
2022/01/24 04:41:54;;;;;;;22.88;14.48;;;;;;;17.55;46.66;103560.22;5081606;28;20059;-36
2022/01/24 04:47:14;;;;;;;19.98;13.50;;;;;;;17.54;46.61;103563.88;5076550;28;20044;-36
2022/01/24 04:54:53;;;;;;;20.55;13.57;;;;;;;17.50;46.56;103555.13;5080363;28;20158;-36
2022/01/24 04:57:24;;;;;;;23.88;14.63;;;;;;;17.48;46.26;103554.31;5078665;28;20044;-36
2022/01/24 04:59:53;;;;;;;23.88;14.70;;;;;;;17.48;46.26;103550.78;5082627;28;20135;-37
2022/01/24 05:02:22;;;;;;;21.98;14.07;;;;;;;17.48;46.58;103540.91;5077910;28;20054;-36
2022/01/24 05:04:50;;;;;;;23.02;13.57;;;;;;;17.46;46.44;103542.84;5078845;28;20727;-37
2022/01/24 05:07:17;;;;;;;22.15;14.35;;;;;;;17.46;46.34;103536.59;5079010;28;20056;-36
2022/01/24 05:09:51;;;;;;;24.73;15.40;;;;;;;17.45;46.81;103545.59;5081263;28;20049;-37
2022/01/24 05:21:21;;;;;;;22.60;14.30;;;;;;;17.44;46.81;103544.72;5080749;28;20067;-36
2022/01/24 05:23:38;;;;;;;25.83;16.20;;;;;;;17.41;46.30;103538.69;5083054;28;20063;-36
2022/01/24 05:26:06;;;;;;;26.30;16.27;;;;;;;17.41;46.37;103544.03;5076327;28;20139;-36
2022/01/24 05:28:35;;;;;;;23.77;15.35;;;;;;;17.40;46.29;103550.31;5086298;28;20641;-36
2022/01/24 05:31:02;;;;;;;26.25;16.75;;;;;;;17.39;46.52;103552.16;5080836;28;20407;-36
2022/01/24 05:33:30;;;;;;;24.98;15.25;;;;;;;17.39;46.76;103545.94;5081958;28;20094;-36
2022/01/24 05:35:57;;;;;;;27.38;17.25;;;;;;;17.38;46.27;103549.56;5079837;28;20049;-36
2022/01/24 05:38:24;;;;;;;25.25;16.42;;;;;;;17.38;46.38;103549.56;5080850;28;20363;-36
2022/01/24 05:40:51;;;;;;;23.23;15.27;;;;;;;17.37;46.08;103548.69;5082595;28;20051;-36
2022/01/24 05:43:18;;;;;;;25.80;16.40;;;;;;;17.37;46.44;103553.19;5079000;28;20040;-36
2022/01/24 05:45:44;;;;;;;23.50;15.73;;;;;;;17.37;46.77;103550.53;5079144;28;20519;-36
2022/01/24 05:48:11;;;;;;;24.60;15.75;;;;;;;17.36;46.85;103551.44;5082783;28;20048;-36
2022/01/24 05:50:38;;;;;;;25.08;16.30;;;;;;;17.36;46.23;103552.31;5077878;28;20135;-37
2022/01/24 05:53:04;;;;;;;24.77;15.90;;;;;;;17.35;46.62;103552.41;5076682;28;20179;-36
2022/01/24 05:55:31;;;;;;;27.35;17.52;;;;;;;17.34;47.02;103556.91;5074759;28;20046;-36
2022/01/24 05:57:58;;;;;;;27.73;17.13;;;;;;;17.36;46.51;103556.81;5070953;28;20060;-36
2022/01/24 06:00:24;;;;;;;30.90;18.58;;;;;;;17.34;46.44;103550.69;5074443;28;20063;-36
2022/01/24 06:02:51;;;;;;;28.52;18.02;;;;;;;17.33;46.46;103557.00;5074980;28;20058;-36
2022/01/24 06:05:18;;;;;;;26.27;17.98;;;;;;;17.34;46.47;103556.03;5077890;28;20467;-36
2022/01/24 06:07:44;;;;;;;26.65;16.85;;;;;;;17.32;46.91;103563.28;5076777;28;20179;-36
2022/01/24 06:10:11;;;;;;;28.05;18.30;;;;;;;17.28;46.76;103560.75;5076076;28;20060;-36
2022/01/24 06:12:38;;;;;;;23.80;16.17;;;;;;;17.31;46.27;103561.56;5077247;28;20048;-36
2022/01/24 06:15:05;;;;;;;26.23;17.40;;;;;;;17.28;46.42;103562.56;5077700;28;20049;-36
2022/01/24 06:17:31;;;;;;;26.58;17.08;;;;;;;17.27;46.83;103569.75;5078241;28;20059;-36
2022/01/24 06:19:58;;;;;;;26.13;17.15;;;;;;;17.27;46.30;103564.41;5078000;28;20079;-36
2022/01/24 06:22:25;;;;;;;28.35;18.45;;;;;;;17.26;46.87;103559.13;5076102;28;20052;-36
2022/01/24 06:24:52;;;;;;;28.92;18.15;;;;;;;17.26;46.82;103567.16;5077470;28;20056;-36
2022/01/24 06:27:38;;;;;;;27.30;17.10;;;;;;;17.26;46.73;103567.16;5071910;28;20055;-36
2022/01/24 06:30:05;;;;;;;29.70;18.25;;;;;;;17.23;46.16;103567.31;5077348;28;20058;-36
2022/01/24 06:32:32;;;;;;;29.92;18.67;;;;;;;17.23;46.10;103567.31;5075610;28;20052;-36
2022/01/24 06:34:58;;;;;;;26.45;17.85;;;;;;;17.22;46.83;103561.09;5080852;28;20052;-36
2022/01/24 06:37:25;;;;;;;28.10;17.20;;;;;;;17.21;46.28;103561.19;5078974;28;20048;-36
2022/01/24 06:39:54;;;;;;;28.25;18.33;;;;;;;17.20;46.65;103559.44;5077415;28;20051;-38
2022/01/24 06:42:23;;;;;;;29.67;18.48;;;;;;;17.20;46.27;103567.47;5080425;28;20053;-37
2022/01/24 06:44:53;;;;;;;27.95;18.50;;;;;;;17.18;46.70;103566.72;5077154;28;20138;-36
2022/01/24 06:47:20;;;;;;;29.73;18.50;;;;;;;17.16;46.17;103566.78;5077571;28;20048;-36
2022/01/24 06:49:47;;;;;;;28.48;18.25;;;;;;;17.16;46.25;103573.94;5081217;28;20130;-37
2022/01/24 06:52:13;;;;;;;28.70;18.13;;;;;;;17.16;46.41;103563.22;5078247;28;21188;-36
2022/01/24 06:54:42;;;;;;;27.13;17.30;;;;;;;17.13;45.89;103566.97;5080131;28;20335;-36
2022/01/24 06:57:13;;;;;;;31.60;19.60;;;;;;;17.10;45.84;103569.78;5082063;28;20048;-36
2022/01/24 06:59:41;;;;;;;28.05;18.65;;;;;;;17.12;45.81;103573.25;5083567;28;20131;-37
2022/01/24 07:02:09;;;;;;;30.05;18.85;;;;;;;17.09;46.02;103576.13;5079559;28;20036;-36
2022/01/24 07:04:39;;;;;;;29.38;18.02;;;;;;;17.08;46.21;103577.03;5081148;28;20048;-36
2022/01/24 07:07:06;;;;;;;27.55;18.23;;;;;;;17.08;45.61;103578.84;5086447;28;20626;-36
2022/01/24 07:09:33;;;;;;;27.08;17.40;;;;;;;17.08;45.44;103578.84;5082874;28;20135;-36
2022/01/24 07:12:00;;;;;;;27.83;18.20;;;;;;;17.07;46.06;103574.44;5077614;28;20060;-36
2022/01/24 07:14:27;;;;;;;28.40;18.10;;;;;;;17.07;45.65;103580.66;5084692;28;20475;-36
2022/01/24 07:19:32;;;;;;;32.00;18.23;;;;;;;17.08;46.18;103585.06;5081934;28;20624;-36
2022/01/24 07:22:01;;;;;;;30.45;18.75;;;;;;;17.07;45.71;103585.16;5085179;28;20049;-36
2022/01/24 07:24:28;;;;;;;27.60;18.05;;;;;;;17.08;46.20;103595.78;5081312;28;20105;-36
2022/01/24 07:26:55;;;;;;;28.52;18.17;;;;;;;17.08;46.46;103593.13;5083549;28;20056;-36
2022/01/24 07:29:23;;;;;;;30.17;18.58;;;;;;;17.08;45.84;103598.47;5081575;28;20060;-37
2022/01/24 07:31:49;;;;;;;30.27;19.15;;;;;;;17.09;46.11;103602.91;5082207;28;20044;-36
2022/01/24 07:34:17;;;;;;;29.98;19.02;;;;;;;17.08;46.28;103595.78;5082165;28;20041;-36
2022/01/24 07:36:44;;;;;;;33.45;20.67;;;;;;;17.08;46.25;103609.19;5082235;28;20055;-36
2022/01/24 07:39:12;;;;;;;32.00;19.38;;;;;;;17.08;45.93;103611.88;5083581;28;20443;-36
2022/01/24 07:41:46;;;;;;;32.35;20.10;;;;;;;17.08;46.26;103609.19;5081767;28;20102;-36
2022/01/24 07:44:14;;;;;;;31.60;19.80;;;;;;;17.07;46.07;103604.78;5077098;28;20050;-36
2022/01/24 07:46:41;;;;;;;29.90;19.40;;;;;;;17.05;45.86;103601.34;5080062;28;20094;-36
2022/01/24 07:49:13;;;;;;;29.63;19.42;;;;;;;17.05;45.91;103609.38;5083136;28;20051;-36
2022/01/24 07:51:40;;;;;;;28.65;18.55;;;;;;;17.04;46.16;103604.94;5084043;28;20101;-36
2022/01/24 07:54:08;;;;;;;28.80;19.38;;;;;;;17.05;45.91;103606.69;5079981;28;20168;-37
2022/01/24 07:56:35;;;;;;;29.17;18.65;;;;;;;17.03;46.44;103604.06;5083781;28;20048;-36
2022/01/24 07:59:02;;;;;;;29.75;18.42;;;;;;;17.03;45.50;103613.94;5085261;28;20598;-36
2022/01/24 08:01:29;;;;;;;30.65;19.75;;;;;;;17.01;46.09;103611.34;5079534;28;20039;-36
2022/01/24 08:03:56;;;;;;;29.45;18.73;;;;;;;17.01;45.84;103610.47;5083202;28;20446;-36
2022/01/24 08:06:22;;;;;;;31.02;18.35;;;;;;;17.01;45.49;103605.13;5079197;28;20131;-36
2022/01/24 08:08:49;;;;;;;27.05;17.80;;;;;;;17.00;45.89;103603.38;5080694;28;20423;-36
2022/01/24 08:11:18;;;;;;;28.15;18.10;;;;;;;16.99;46.29;103609.69;5084865;28;20060;-36
2022/01/24 08:13:45;;;;;;;29.02;17.85;;;;;;;16.98;45.49;103608.81;5075440;28;20542;-37
2022/01/24 08:16:13;;;;;;;33.63;19.65;;;;;;;17.03;46.39;103605.91;5069429;28;20052;-37
2022/01/24 08:18:40;;;;;;;37.10;23.13;;;;;;;17.09;46.64;103610.94;5078374;28;20047;-38
2022/01/24 08:21:06;;;;;;;40.30;24.77;;;;;;;17.15;46.69;103615.97;5076141;28;20209;-37
2022/01/24 08:23:33;;;;;;;41.97;26.45;;;;;;;17.21;46.21;103622.84;5074924;28;20052;-37
2022/01/24 08:26:00;;;;;;;48.15;29.77;;;;;;;17.24;46.00;103618.16;5078257;28;20048;-36
2022/01/24 08:28:26;;;;;;;56.35;32.97;;;;;;;17.25;46.24;103622.59;5076205;28;20054;-37
2022/01/24 08:30:53;;;;;;;63.65;38.45;;;;;;;17.28;46.51;103624.22;5074477;28;20054;-37
2022/01/24 08:33:20;;;;;;;75.80;45.33;;;;;;;17.29;47.10;103626.00;5075736;28;20114;-37
2022/01/24 08:35:47;;;;;;;80.20;48.75;;;;;;;17.34;47.62;103631.09;5070998;28;20080;-36
2022/01/24 08:38:14;;;;;;;85.57;51.70;;;;;;;17.39;47.10;103626.34;5077690;28;20055;-36
2022/01/24 08:40:41;;;;;;;86.88;51.97;;;;;;;17.38;46.37;103622.81;5080237;28;20123;-37
2022/01/24 08:43:08;;;;;;;81.28;48.25;;;;;;;17.40;46.94;103628.94;5075106;28;20166;-37
